Time;durP1;ratioP1;P1;durP2;ratioP2;P2;SDS_P1;SDS_P2;PMS_P1;PMS_P2;Temp;Humidity;BMP_temperature;BMP_pressure;BME280_temperature;BME280_humidity;BME280_pressure;Samples;Min_cycle;Max_cycle;Signal;HPM_P1;HPM_P2
2022/05/20 00:00:34;;;;;;;0.30;0.30;;;16.70;99.90;;;;;;5035359;28;20181;-69
2022/05/20 00:03:00;;;;;;;0.30;0.30;;;16.80;99.90;;;;;;5035281;28;20183;-68
2022/05/20 00:05:27;;;;;;;0.30;0.30;;;16.70;99.90;;;;;;5035358;28;20408;-69
2022/05/20 00:07:53;;;;;;;0.40;0.40;;;16.70;99.90;;;;;;5034089;28;20185;-70
2022/05/20 00:10:20;;;;;;;0.30;0.30;;;16.60;99.90;;;;;;5034467;28;20426;-70
2022/05/20 00:12:46;;;;;;;0.50;0.50;;;16.60;99.90;;;;;;5035098;28;20417;-70
2022/05/20 00:15:19;;;;;;;0.30;0.30;;;16.50;99.90;;;;;;5035244;28;20520;-69
2022/05/20 00:17:45;;;;;;;0.40;0.40;;;16.50;99.90;;;;;;5035343;28;20493;-68
2022/05/20 00:20:14;;;;;;;0.30;0.30;;;16.40;99.90;;;;;;5034818;28;20457;-68
2022/05/20 00:22:39;;;;;;;0.50;0.50;;;16.50;99.90;;;;;;5034866;28;20402;-70
2022/05/20 00:27:51;;;;;;;0.30;0.30;;;16.50;99.90;;;;;;5035403;28;20186;-68
2022/05/20 00:30:17;;;;;;;0.73;0.73;;;16.70;99.90;;;;;;5034758;28;20429;-68
2022/05/20 00:32:43;;;;;;;0.30;0.30;;;16.70;99.90;;;;;;5034940;28;20185;-68
2022/05/20 00:35:10;;;;;;;0.30;0.30;;;16.60;99.90;;;;;;5034808;28;20229;-70
2022/05/20 00:37:36;;;;;;;0.50;0.50;;;16.60;99.90;;;;;;5034842;28;20178;-68
2022/05/20 00:40:03;;;;;;;0.50;0.50;;;16.70;99.90;;;;;;5034671;28;20422;-70
2022/05/20 00:42:28;;;;;;;0.30;0.30;;;16.70;99.90;;;;;;5034402;28;20430;-68
2022/05/20 00:44:54;;;;;;;0.30;0.30;;;16.70;99.90;;;;;;5034589;28;20422;-69
2022/05/20 00:47:19;;;;;;;0.30;0.30;;;16.70;99.90;;;;;;5034607;28;20308;-68
2022/05/20 00:49:49;;;;;;;0.60;0.60;;;16.60;99.90;;;;;;5034382;28;20187;-69
2022/05/20 00:52:19;;;;;;;0.87;0.87;;;16.60;99.90;;;;;;5034369;28;20186;-68
2022/05/20 00:54:50;;;;;;;0.40;0.40;;;16.60;99.90;;;;;;5034512;28;20413;-69
2022/05/20 00:57:22;;;;;;;0.30;0.30;;;16.60;99.90;;;;;;5034733;28;20425;-67
2022/05/20 00:59:52;;;;;;;0.30;0.30;;;16.50;99.90;;;;;;5034271;28;20479;-68
2022/05/20 01:02:21;;;;;;;0.30;0.30;;;16.50;99.90;;;;;;5033977;28;20432;-68
2022/05/20 01:04:48;;;;;;;0.40;0.40;;;16.40;99.90;;;;;;5034389;28;20415;-69
2022/05/20 01:07:18;;;;;;;1.90;0.60;;;16.40;99.90;;;;;;5034277;28;20491;-68
2022/05/20 01:09:44;;;;;;;0.60;0.60;;;16.40;99.90;;;;;;5034026;28;20422;-70
2022/05/20 01:12:09;;;;;;;0.50;0.50;;;16.40;99.90;;;;;;5033939;28;20418;-69
2022/05/20 01:14:35;;;;;;;0.30;0.30;;;16.40;99.90;;;;;;5034129;28;20444;-69
2022/05/20 01:17:01;;;;;;;0.30;0.30;;;16.40;99.90;;;;;;5033944;28;20654;-70
2022/05/20 01:19:54;;;;;;;0.30;0.30;;;16.40;99.90;;;;;;5033790;28;20206;-69
2022/05/20 01:22:28;;;;;;;0.60;0.60;;;16.40;99.90;;;;;;5033028;28;20174;-68
2022/05/20 01:24:53;;;;;;;0.30;0.30;;;16.30;99.90;;;;;;5033923;28;20437;-69
2022/05/20 01:27:19;;;;;;;0.30;0.30;;;16.30;99.90;;;;;;5033926;28;20935;-69
2022/05/20 01:29:45;;;;;;;0.30;0.30;;;16.20;99.90;;;;;;5033876;28;20199;-70
2022/05/20 01:32:10;;;;;;;1.13;0.77;;;16.20;99.90;;;;;;5033525;28;20526;-71
2022/05/20 01:34:36;;;;;;;0.30;0.30;;;16.20;99.90;;;;;;5033738;28;20214;-68
2022/05/20 01:37:02;;;;;;;0.30;0.30;;;16.20;99.90;;;;;;5033645;28;20203;-69
2022/05/20 01:39:27;;;;;;;0.30;0.30;;;16.10;99.90;;;;;;5033683;28;20714;-69
2022/05/20 01:42:09;;;;;;;0.30;0.30;;;16.00;99.90;;;;;;5033734;28;20532;-69
2022/05/20 01:44:43;;;;;;;0.30;0.30;;;16.00;99.90;;;;;;5033820;28;20260;-68
2022/05/20 01:47:17;;;;;;;0.50;0.50;;;16.10;99.90;;;;;;5033595;28;20768;-69
2022/05/20 01:50:02;;;;;;;0.60;0.60;;;16.10;99.90;;;;;;5033485;28;20447;-69
2022/05/20 01:52:33;;;;;;;0.30;0.30;;;16.10;99.90;;;;;;5033638;28;20471;-69
2022/05/20 01:55:05;;;;;;;0.83;0.70;;;16.00;99.90;;;;;;5033581;28;20413;-68
2022/05/20 01:57:49;;;;;;;0.40;0.40;;;16.00;99.90;;;;;;5033732;28;20412;-68
2022/05/20 02:00:21;;;;;;;0.30;0.30;;;15.90;99.90;;;;;;5033376;28;20432;-68
2022/05/20 02:02:56;;;;;;;2.97;2.00;;;15.90;99.90;;;;;;5033293;28;20405;-68
2022/05/20 02:05:31;;;;;;;0.30;0.30;;;15.90;99.90;;;;;;5033307;28;20419;-69
2022/05/20 02:08:07;;;;;;;0.30;0.30;;;15.90;99.90;;;;;;5033405;28;20451;-69
2022/05/20 02:11:08;;;;;;;0.47;0.47;;;15.80;99.90;;;;;;5033360;28;20883;-69
2022/05/20 02:13:39;;;;;;;0.30;0.30;;;15.80;99.90;;;;;;5033260;28;20416;-69
2022/05/20 02:16:15;;;;;;;0.30;0.30;;;15.90;99.90;;;;;;5033678;28;20451;-69
2022/05/20 02:18:50;;;;;;;0.50;0.50;;;15.80;99.90;;;;;;5033259;28;20516;-69
2022/05/20 02:21:20;;;;;;;0.67;0.67;;;15.80;99.90;;;;;;5033293;28;20787;-69
2022/05/20 02:23:50;;;;;;;0.90;0.90;;;15.80;99.90;;;;;;5033024;28;20444;-69
2022/05/20 02:26:19;;;;;;;0.30;0.30;;;15.80;99.90;;;;;;5033310;28;20906;-68
2022/05/20 02:29:12;;;;;;;0.30;0.30;;;15.70;99.90;;;;;;5033427;28;20450;-70
2022/05/20 02:31:48;;;;;;;0.30;0.30;;;15.70;99.90;;;;;;5033379;28;20486;-69
2022/05/20 02:34:14;;;;;;;0.30;0.30;;;15.70;99.90;;;;;;5036341;28;20781;-68
2022/05/20 02:36:40;;;;;;;0.40;0.40;;;15.70;99.90;;;;;;5036832;28;20453;-69
2022/05/20 02:39:14;;;;;;;0.30;0.30;;;15.70;99.90;;;;;;5037053;28;20191;-68
2022/05/20 02:41:44;;;;;;;0.30;0.30;;;15.70;99.90;;;;;;5036960;28;20406;-68
2022/05/20 02:44:10;;;;;;;0.30;0.30;;;15.60;99.90;;;;;;5036922;28;20409;-69
2022/05/20 02:46:37;;;;;;;0.30;0.30;;;15.50;99.90;;;;;;5036891;28;20476;-68
2022/05/20 02:49:03;;;;;;;0.30;0.30;;;15.50;99.90;;;;;;5036740;28;20288;-70
2022/05/20 02:51:29;;;;;;;0.30;0.30;;;15.50;99.90;;;;;;5036650;28;20488;-70
2022/05/20 02:53:54;;;;;;;0.40;0.40;;;15.40;99.90;;;;;;5036586;28;20179;-68
2022/05/20 02:56:20;;;;;;;0.30;0.30;;;15.40;99.90;;;;;;5036600;28;20206;-70
2022/05/20 03:04:14;;;;;;;0.30;0.30;;;15.40;99.90;;;;;;5036390;28;20400;-69
2022/05/20 03:06:46;;;;;;;0.30;0.30;;;15.30;99.90;;;;;;5036762;28;20409;-68
2022/05/20 03:09:13;;;;;;;0.30;0.30;;;15.40;99.90;;;;;;5036585;28;20197;-69
2022/05/20 03:11:39;;;;;;;0.30;0.30;;;15.40;99.90;;;;;;5036313;28;20407;-69
2022/05/20 03:14:06;;;;;;;0.83;0.77;;;15.30;99.90;;;;;;5036285;28;20407;-69
2022/05/20 03:16:32;;;;;;;0.30;0.30;;;15.30;99.90;;;;;;5036115;28;20548;-70
2022/05/20 03:18:59;;;;;;;0.30;0.30;;;15.30;99.90;;;;;;5036382;28;20919;-69
2022/05/20 03:21:25;;;;;;;0.40;0.40;;;15.30;99.90;;;;;;5036390;28;20488;-68
2022/05/20 03:23:51;;;;;;;0.40;0.40;;;15.30;99.90;;;;;;5035859;28;20402;-69
2022/05/20 03:26:18;;;;;;;0.30;0.30;;;15.30;99.90;;;;;;5036210;28;20413;-70
2022/05/20 03:28:48;;;;;;;0.30;0.30;;;15.20;99.90;;;;;;5036156;28;20440;-69
2022/05/20 03:31:14;;;;;;;0.30;0.30;;;15.30;99.90;;;;;;5036210;28;20882;-70
2022/05/20 03:33:42;;;;;;;0.40;0.40;;;15.30;99.90;;;;;;5035878;28;20413;-70
2022/05/20 03:36:08;;;;;;;0.40;0.40;;;15.40;99.90;;;;;;5034708;28;20465;-69
2022/05/20 03:38:35;;;;;;;0.30;0.30;;;15.40;99.90;;;;;;5035907;28;20422;-69
2022/05/20 03:41:01;;;;;;;1.07;0.80;;;15.30;99.90;;;;;;5035975;28;20807;-70
2022/05/20 03:43:27;;;;;;;0.30;0.30;;;15.30;99.90;;;;;;5035576;28;20405;-69
2022/05/20 03:45:54;;;;;;;0.30;0.30;;;15.30;99.90;;;;;;5034708;28;20420;-70
2022/05/20 03:48:20;;;;;;;0.30;0.30;;;15.30;99.90;;;;;;5035642;28;20183;-69
2022/05/20 03:50:45;;;;;;;0.30;0.30;;;15.30;99.90;;;;;;5035770;28;20415;-70
2022/05/20 03:53:11;;;;;;;0.30;0.30;;;15.30;99.90;;;;;;5035449;28;20419;-69
2022/05/20 03:55:37;;;;;;;0.30;0.30;;;15.20;99.90;;;;;;5035615;28;20202;-69
2022/05/20 03:58:03;;;;;;;0.30;0.30;;;15.20;99.90;;;;;;5035333;28;20425;-70
2022/05/20 04:00:29;;;;;;;0.57;0.57;;;15.20;99.90;;;;;;5035688;28;20179;-69
2022/05/20 04:02:55;;;;;;;0.50;0.50;;;15.20;99.90;;;;;;5035499;28;20402;-69
2022/05/20 04:05:20;;;;;;;0.30;0.30;;;15.20;99.90;;;;;;5035468;28;20175;-69
2022/05/20 04:07:46;;;;;;;0.40;0.40;;;15.20;99.90;;;;;;5035517;28;20200;-68
2022/05/20 04:10:12;;;;;;;0.30;0.30;;;15.20;99.90;;;;;;5035210;28;20207;-70
2022/05/20 04:12:41;;;;;;;0.30;0.30;;;15.30;99.90;;;;;;5035163;28;20632;-69
2022/05/20 04:15:09;;;;;;;0.30;0.30;;;15.40;99.90;;;;;;5035093;28;20237;-69
2022/05/20 04:17:35;;;;;;;0.30;0.30;;;15.40;99.90;;;;;;5035130;28;20413;-68
2022/05/20 04:20:01;;;;;;;0.30;0.30;;;15.40;99.90;;;;;;5033621;28;20551;-69
2022/05/20 04:22:32;;;;;;;0.90;0.90;;;15.50;99.90;;;;;;5035023;28;20171;-70
2022/05/20 04:24:58;;;;;;;0.40;0.40;;;15.50;99.90;;;;;;5035114;28;20410;-69
2022/05/20 04:27:24;;;;;;;0.30;0.30;;;15.60;99.90;;;;;;5034913;28;20480;-69
2022/05/20 04:29:50;;;;;;;0.30;0.30;;;15.50;99.90;;;;;;5034808;28;20476;-71
2022/05/20 04:32:16;;;;;;;0.90;0.60;;;15.60;99.90;;;;;;5034709;28;20191;-70
2022/05/20 04:34:42;;;;;;;0.40;0.40;;;15.70;99.90;;;;;;5034949;28;20510;-70
2022/05/20 04:37:08;;;;;;;0.50;0.50;;;15.70;99.90;;;;;;5034794;28;20554;-70
2022/05/20 04:39:33;;;;;;;0.50;0.50;;;15.70;99.90;;;;;;5034788;28;20437;-69
2022/05/20 04:47:30;;;;;;;0.30;0.30;;;16.30;99.90;;;;;;5035075;28;20405;-69
2022/05/20 04:49:56;;;;;;;0.30;0.30;;;16.40;99.90;;;;;;5032993;28;20945;-68
2022/05/20 04:52:22;;;;;;;0.30;0.30;;;16.70;99.90;;;;;;5034692;28;20504;-69
2022/05/20 04:54:51;;;;;;;0.73;0.73;;;16.90;99.90;;;;;;5034430;28;20175;-70
2022/05/20 04:57:35;;;;;;;0.30;0.30;;;17.40;99.90;;;;;;5034201;28;20449;-69
2022/05/20 05:00:10;;;;;;;0.30;0.30;;;18.00;99.90;;;;;;5034137;28;20432;-68
2022/05/20 05:02:36;;;;;;;0.30;0.30;;;18.50;99.90;;;;;;5034196;28;20492;-68
2022/05/20 05:05:04;;;;;;;0.63;0.63;;;18.80;99.90;;;;;;5034381;28;20403;-69
2022/05/20 05:07:30;;;;;;;0.30;0.30;;;19.20;99.90;;;;;;5034215;28;20496;-70
2022/05/20 05:09:56;;;;;;;0.67;0.67;;;19.70;99.90;;;;;;5034100;28;20460;-69
2022/05/20 05:12:23;;;;;;;0.30;0.30;;;20.10;99.10;;;;;;5034061;28;20174;-69
2022/05/20 05:14:51;;;;;;;0.40;0.40;;;20.30;98.50;;;;;;5034244;28;20229;-69
2022/05/20 05:18:09;;;;;;;0.30;0.30;;;20.40;98.00;;;;;;5034033;28;20456;-68
2022/05/20 05:20:08;;;;;;;0.53;0.53;;;20.50;97.70;;;;;;5033628;28;20465;-70
2022/05/20 05:22:34;;;;;;;0.30;0.30;;;20.60;97.60;;;;;;5033875;28;20414;-70
2022/05/20 05:25:00;;;;;;;0.70;0.70;;;20.60;97.10;;;;;;5034048;28;20406;-69
2022/05/20 05:27:26;;;;;;;0.40;0.40;;;20.50;97.30;;;;;;5034040;28;20175;-69
2022/05/20 05:29:52;;;;;;;0.30;0.30;;;20.40;97.20;;;;;;5032629;28;20444;-68
2022/05/20 05:32:18;;;;;;;0.43;0.43;;;20.10;96.80;;;;;;5033776;28;20491;-70
2022/05/20 05:34:43;;;;;;;0.40;0.40;;;20.10;97.50;;;;;;5033754;28;20167;-69
2022/05/20 05:37:10;;;;;;;0.77;0.60;;;20.40;97.90;;;;;;5033622;28;20206;-69
2022/05/20 05:39:36;;;;;;;0.30;0.30;;;20.50;97.70;;;;;;5033597;28;20239;-69
2022/05/20 05:42:03;;;;;;;0.30;0.30;;;20.80;97.80;;;;;;5033367;28;20406;-69
2022/05/20 05:44:28;;;;;;;0.30;0.30;;;20.90;97.60;;;;;;5034027;28;20406;-70
2022/05/20 05:46:55;;;;;;;0.30;0.30;;;21.10;97.60;;;;;;5033946;28;20493;-68
2022/05/20 05:49:22;;;;;;;0.30;0.30;;;21.30;97.50;;;;;;5033531;28;20204;-70
2022/05/20 05:51:48;;;;;;;0.30;0.30;;;21.40;97.20;;;;;;5033600;28;20746;-68
2022/05/20 05:54:13;;;;;;;0.40;0.40;;;21.60;97.50;;;;;;5033543;28;20414;-70
2022/05/20 05:56:39;;;;;;;0.40;0.40;;;21.60;97.20;;;;;;5033555;28;20601;-69
2022/05/20 05:59:05;;;;;;;0.57;0.57;;;21.70;96.90;;;;;;5033360;28;20625;-70
2022/05/20 06:01:31;;;;;;;0.60;0.53;;;21.80;96.80;;;;;;5033461;28;20232;-69
2022/05/20 06:03:57;;;;;;;0.30;0.30;;;22.00;96.90;;;;;;5033318;28;20405;-69
2022/05/20 06:06:22;;;;;;;0.50;0.50;;;22.20;96.30;;;;;;5033466;28;20187;-69
2022/05/20 06:08:48;;;;;;;0.43;0.43;;;22.20;96.90;;;;;;5036013;28;20432;-70
2022/05/20 06:11:14;;;;;;;0.40;0.40;;;22.40;97.40;;;;;;5037453;28;20179;-70
2022/05/20 06:13:40;;;;;;;0.30;0.30;;;22.60;96.40;;;;;;5037225;28;20663;-70
2022/05/20 06:16:06;;;;;;;0.30;0.30;;;23.30;96.10;;;;;;5037326;28;20514;-70
2022/05/20 06:18:32;;;;;;;0.30;0.30;;;24.50;95.30;;;;;;5037342;28;20260;-69
2022/05/20 06:20:57;;;;;;;0.30;0.30;;;26.20;92.90;;;;;;5037182;28;20273;-70
2022/05/20 06:23:24;;;;;;;0.40;0.40;;;27.90;90.00;;;;;;5036967;28;20401;-69
2022/05/20 06:25:51;;;;;;;0.60;0.60;;;29.40;82.20;;;;;;5037101;28;20179;-71
2022/05/20 06:28:18;;;;;;;0.30;0.30;;;30.80;76.00;;;;;;5037019;28;20413;-70
2022/05/20 06:30:44;;;;;;;0.40;0.40;;;32.10;71.60;;;;;;5036945;28;20420;-70
2022/05/20 06:33:11;;;;;;;1.13;0.70;;;33.10;63.70;;;;;;5035723;28;20413;-71
2022/05/20 06:41:07;;;;;;;0.50;0.40;;;35.80;54.80;;;;;;5037441;28;20956;-70
2022/05/20 06:43:34;;;;;;;0.30;0.30;;;36.50;52.10;;;;;;5036684;28;20405;-70
2022/05/20 06:46:02;;;;;;;0.60;0.60;;;37.10;50.80;;;;;;5035629;28;20936;-71
2022/05/20 06:48:47;;;;;;;0.50;0.40;;;37.50;49.80;;;;;;5036788;28;20440;-72
2022/05/20 06:51:20;;;;;;;0.30;0.30;;;37.80;48.20;;;;;;5036686;28;20492;-69
2022/05/20 06:53:46;;;;;;;0.70;0.70;;;37.70;47.70;;;;;;5036591;28;20413;-72
2022/05/20 06:56:12;;;;;;;0.40;0.40;;;37.80;47.50;;;;;;5036481;28;20812;-71
2022/05/20 06:58:38;;;;;;;0.30;0.30;;;37.80;45.70;;;;;;5036508;28;20429;-69
2022/05/20 07:01:05;;;;;;;0.30;0.30;;;37.90;45.80;;;;;;5036497;28;20413;-71
2022/05/20 07:03:32;;;;;;;1.03;0.80;;;38.30;45.90;;;;;;5036359;28;20434;-70
2022/05/20 07:05:57;;;;;;;0.40;0.40;;;38.40;45.30;;;;;;5036595;28;20413;-70
2022/05/20 07:08:24;;;;;;;0.40;0.40;;;38.30;45.00;;;;;;5036294;28;20429;-71
2022/05/20 07:10:49;;;;;;;1.10;0.93;;;38.00;44.70;;;;;;5036306;28;20182;-71
2022/05/20 07:13:15;;;;;;;1.10;0.50;;;37.90;45.00;;;;;;5036126;28;20413;-70
2022/05/20 07:15:41;;;;;;;0.30;0.30;;;37.70;44.90;;;;;;5036225;28;20285;-72
2022/05/20 07:18:07;;;;;;;1.57;1.47;;;37.30;46.00;;;;;;5036199;28;20286;-70
2022/05/20 07:20:32;;;;;;;0.47;0.47;;;37.20;46.50;;;;;;5035976;28;20245;-70
2022/05/20 07:22:58;;;;;;;0.70;0.70;;;37.40;47.00;;;;;;5035988;28;20177;-71
2022/05/20 07:25:24;;;;;;;1.67;0.97;;;37.90;46.50;;;;;;5036162;28;20540;-72
2022/05/20 07:27:50;;;;;;;0.70;0.70;;;38.20;44.10;;;;;;5036074;28;20202;-71
2022/05/20 07:30:17;;;;;;;0.40;0.30;;;38.00;42.70;;;;;;5035853;28;20433;-69
2022/05/20 07:32:43;;;;;;;1.17;0.70;;;37.80;41.70;;;;;;5035878;28;20179;-72
2022/05/20 07:35:09;;;;;;;0.43;0.40;;;37.50;40.80;;;;;;5035851;28;20985;-70
2022/05/20 07:37:35;;;;;;;0.43;0.43;;;37.40;40.40;;;;;;5035794;28;20179;-72
2022/05/20 07:40:02;;;;;;;0.80;0.80;;;36.80;41.10;;;;;;5035730;28;20491;-71
2022/05/20 07:42:28;;;;;;;0.70;0.60;;;36.50;40.80;;;;;;5035676;28;20765;-71
2022/05/20 07:44:53;;;;;;;0.40;0.40;;;36.30;40.80;;;;;;5035937;28;20409;-72
2022/05/20 07:47:20;;;;;;;0.40;0.40;;;36.30;41.50;;;;;;5035648;28;20587;-71
2022/05/20 07:49:46;;;;;;;0.30;0.30;;;36.70;40.30;;;;;;5035917;28;20186;-72
2022/05/20 07:52:13;;;;;;;0.70;0.60;;;36.70;39.60;;;;;;5035559;28;20409;-70
2022/05/20 07:54:43;;;;;;;0.40;0.40;;;36.50;40.70;;;;;;5035738;28;20181;-72
2022/05/20 07:57:13;;;;;;;0.40;0.40;;;36.80;41.40;;;;;;5035533;28;20511;-71
2022/05/20 07:59:45;;;;;;;0.40;0.40;;;37.50;40.80;;;;;;5035393;28;20917;-70
2022/05/20 08:02:13;;;;;;;0.40;0.40;;;38.10;38.40;;;;;;5035512;28;20397;-71
2022/05/20 08:04:57;;;;;;;0.30;0.30;;;38.20;38.50;;;;;;5035401;28;20425;-71
2022/05/20 08:07:28;;;;;;;0.80;0.80;;;38.30;37.00;;;;;;5035507;28;20923;-70
2022/05/20 08:09:53;;;;;;;0.83;0.83;;;38.00;35.90;;;;;;5035216;28;20933;-70
2022/05/20 08:12:20;;;;;;;0.40;0.30;;;37.10;37.00;;;;;;5034981;28;20414;-70
2022/05/20 08:14:47;;;;;;;1.07;1.00;;;35.70;37.00;;;;;;5035358;28;20163;-69
2022/05/20 08:17:13;;;;;;;0.30;0.30;;;35.30;38.00;;;;;;5035068;28;20457;-70
2022/05/20 08:19:39;;;;;;;0.30;0.30;;;35.40;39.80;;;;;;5034885;28;20580;-71
2022/05/20 08:22:04;;;;;;;0.40;0.40;;;35.60;39.70;;;;;;5035123;28;20242;-71
2022/05/20 08:24:30;;;;;;;0.60;0.60;;;36.20;39.60;;;;;;5035126;28;20163;-71
2022/05/20 08:26:56;;;;;;;0.30;0.30;;;37.30;38.20;;;;;;5034872;28;20543;-71
2022/05/20 08:29:22;;;;;;;0.40;0.40;;;37.60;37.90;;;;;;5034918;28;20508;-71
2022/05/20 08:31:48;;;;;;;0.80;0.80;;;37.70;36.70;;;;;;5034288;28;20489;-71
2022/05/20 08:34:13;;;;;;;0.57;0.57;;;37.80;37.40;;;;;;5034615;28;20167;-72
2022/05/20 08:36:40;;;;;;;0.40;0.40;;;36.70;38.40;;;;;;5034766;28;20568;-71
2022/05/20 08:39:10;;;;;;;0.37;0.30;;;36.60;37.60;;;;;;5034813;28;20182;-70
2022/05/20 08:41:40;;;;;;;0.40;0.40;;;36.90;39.80;;;;;;5034874;28;20405;-71
2022/05/20 08:44:11;;;;;;;0.40;0.40;;;37.30;37.80;;;;;;5034629;28;20389;-70
2022/05/20 08:46:37;;;;;;;0.40;0.40;;;38.00;35.70;;;;;;5034687;28;20923;-71
2022/05/20 08:49:07;;;;;;;0.40;0.40;;;37.30;34.00;;;;;;5034613;28;20433;-71
2022/05/20 08:51:33;;;;;;;0.87;0.87;;;37.10;35.60;;;;;;5034529;28;20762;-71
2022/05/20 08:54:01;;;;;;;0.50;0.50;;;37.10;34.80;;;;;;5034327;28;20420;-69
2022/05/20 08:56:27;;;;;;;0.40;0.37;;;36.80;35.40;;;;;;5034222;28;20201;-70
2022/05/20 08:58:58;;;;;;;0.40;0.30;;;35.00;36.20;;;;;;5034140;28;20430;-71
2022/05/20 09:01:38;;;;;;;0.40;0.40;;;33.80;38.50;;;;;;5034483;28;20217;-70
2022/05/20 09:04:08;;;;;;;0.97;0.97;;;33.30;38.30;;;;;;5034117;28;20417;-70
2022/05/20 09:07:05;;;;;;;0.40;0.40;;;33.80;39.30;;;;;;5034104;28;20406;-71
2022/05/20 09:09:55;;;;;;;0.30;0.30;;;33.70;37.50;;;;;;5034022;28;20430;-70
2022/05/20 09:12:33;;;;;;;0.70;0.70;;;33.00;38.40;;;;;;5034108;28;20405;-71
2022/05/20 09:18:11;;;;;;;0.40;0.40;;;30.80;42.00;;;;;;5034411;28;20409;-70
2022/05/20 09:20:51;;;;;;;0.40;0.40;;;29.90;43.40;;;;;;5032446;28;20429;-69
2022/05/20 09:23:20;;;;;;;0.30;0.30;;;30.20;44.00;;;;;;5033725;28;20398;-69
2022/05/20 09:26:11;;;;;;;0.30;0.30;;;30.40;42.40;;;;;;5032624;28;20437;-71
2022/05/20 09:28:40;;;;;;;0.30;0.30;;;31.50;41.70;;;;;;5031100;28;20980;-70
2022/05/20 09:31:14;;;;;;;0.40;0.40;;;32.10;41.40;;;;;;5033739;28;20451;-70
2022/05/20 09:33:47;;;;;;;0.40;0.40;;;32.40;40.90;;;;;;5033561;28;20459;-71
2022/05/20 09:36:37;;;;;;;1.07;1.00;;;32.80;41.60;;;;;;5033793;28;20445;-70
2022/05/20 09:39:14;;;;;;;0.50;0.50;;;32.70;40.10;;;;;;5033616;28;20520;-70
2022/05/20 09:41:49;;;;;;;0.40;0.40;;;33.30;40.40;;;;;;5033260;28;20386;-71
2022/05/20 09:44:15;;;;;;;0.57;0.57;;;34.10;40.50;;;;;;5033064;28;20409;-71
2022/05/20 09:47:03;;;;;;;0.40;0.30;;;34.10;38.50;;;;;;5033789;28;20817;-71
2022/05/20 09:50:06;;;;;;;1.27;1.27;;;33.70;39.40;;;;;;5033592;28;20433;-70
2022/05/20 09:52:40;;;;;;;0.47;0.40;;;33.90;39.10;;;;;;5021981;28;20855;-70
2022/05/20 09:55:22;;;;;;;0.50;0.50;;;34.10;38.10;;;;;;5033526;28;20456;-71
2022/05/20 09:57:48;;;;;;;0.93;0.93;;;33.80;38.60;;;;;;5033531;28;20410;-69
2022/05/20 10:00:27;;;;;;;0.40;0.40;;;33.80;37.80;;;;;;5033334;28;20417;-71
2022/05/20 10:03:04;;;;;;;0.50;0.40;;;33.40;37.70;;;;;;5033224;28;20401;-70
2022/05/20 10:05:41;;;;;;;0.30;0.30;;;33.50;39.10;;;;;;5033403;28;20393;-69
2022/05/20 10:08:21;;;;;;;0.30;0.30;;;33.60;39.60;;;;;;5033348;28;20417;-70
2022/05/20 10:11:27;;;;;;;0.40;0.40;;;33.90;38.30;;;;;;5033313;28;20874;-70
2022/05/20 10:14:03;;;;;;;0.30;0.30;;;33.20;38.20;;;;;;5031197;28;21008;-70
2022/05/20 10:16:41;;;;;;;0.50;0.43;;;32.90;38.90;;;;;;5033435;28;20453;-69
2022/05/20 10:19:11;;;;;;;3.23;0.40;;;33.00;39.40;;;;;;5033116;28;20421;-71
2022/05/20 10:21:53;;;;;;;0.30;0.30;;;33.00;38.50;;;;;;5033215;28;20983;-70
2022/05/20 10:24:22;;;;;;;0.50;0.50;;;33.10;39.60;;;;;;5033033;28;20432;-70
2022/05/20 10:26:57;;;;;;;0.43;0.43;;;33.40;38.70;;;;;;5033595;28;20398;-71
2022/05/20 10:33:00;;;;;;;0.50;0.50;;;33.70;37.20;;;;;;5030792;28;20948;-71
2022/05/20 10:35:42;;;;;;;0.60;0.47;;;33.60;38.40;;;;;;5033218;28;20402;-70
2022/05/20 10:38:16;;;;;;;0.30;0.30;;;33.10;38.50;;;;;;5033208;28;20532;-69
2022/05/20 10:40:57;;;;;;;2.40;2.30;;;32.70;40.80;;;;;;5033263;28;20396;-71
2022/05/20 10:49:43;;;;;;;0.90;0.90;;;31.80;39.90;;;;;;5033275;28;20480;-71
2022/05/20 10:52:27;;;;;;;0.60;0.60;;;31.50;40.80;;;;;;5031721;28;20414;-71
2022/05/20 10:55:06;;;;;;;0.30;0.30;;;31.40;41.30;;;;;;5035731;28;20407;-70
2022/05/20 10:57:32;;;;;;;0.30;0.30;;;31.00;42.30;;;;;;5036778;28;20452;-70
2022/05/20 11:00:01;;;;;;;0.30;0.30;;;30.90;43.90;;;;;;5036617;28;20929;-70
2022/05/20 11:02:44;;;;;;;0.67;0.67;;;30.50;42.30;;;;;;5035146;28;20199;-69
2022/05/20 11:05:16;;;;;;;0.40;0.40;;;30.00;42.70;;;;;;5036645;28;20405;-72
2022/05/20 11:07:58;;;;;;;0.30;0.30;;;29.90;43.40;;;;;;5036439;28;20405;-69
2022/05/20 11:10:34;;;;;;;0.30;0.30;;;29.90;43.10;;;;;;5036328;28;20425;-69
2022/05/20 11:13:33;;;;;;;0.30;0.30;;;29.90;43.70;;;;;;5036296;28;20952;-70
2022/05/20 11:16:17;;;;;;;0.30;0.30;;;30.10;43.10;;;;;;5030848;28;20461;-69
2022/05/20 11:19:03;;;;;;;0.53;0.53;;;30.30;44.50;;;;;;5036171;28;20785;-70
2022/05/20 11:21:32;;;;;;;0.63;0.63;;;30.60;45.20;;;;;;5036348;28;20750;-70
2022/05/20 11:24:01;;;;;;;0.30;0.30;;;30.40;43.40;;;;;;5035880;28;20413;-69
2022/05/20 11:26:59;;;;;;;0.50;0.50;;;30.10;43.70;;;;;;5036259;28;20405;-71
2022/05/20 11:29:49;;;;;;;0.33;0.33;;;29.60;43.60;;;;;;5036202;28;20421;-70
2022/05/20 11:32:32;;;;;;;0.90;0.90;;;29.50;43.60;;;;;;5035937;28;20397;-69
2022/05/20 11:35:15;;;;;;;0.40;0.40;;;29.60;43.40;;;;;;5036189;28;20902;-69
2022/05/20 11:38:08;;;;;;;0.60;0.50;;;29.60;45.30;;;;;;5035839;28;20767;-70
2022/05/20 11:40:42;;;;;;;0.30;0.30;;;29.70;45.30;;;;;;5035774;28;20382;-70
2022/05/20 11:43:21;;;;;;;0.30;0.30;;;29.70;42.30;;;;;;5035631;28;20756;-70
2022/05/20 11:45:59;;;;;;;0.30;0.30;;;29.60;42.20;;;;;;5035900;28;20406;-71
2022/05/20 11:48:55;;;;;;;1.17;0.50;;;29.70;43.30;;;;;;5035772;28;21012;-71
2022/05/20 11:51:38;;;;;;;2.30;2.20;;;29.80;44.00;;;;;;5036074;28;20410;-71
2022/05/20 11:54:24;;;;;;;1.57;1.50;;;29.70;41.50;;;;;;5035530;28;20766;-68
2022/05/20 11:57:07;;;;;;;0.30;0.30;;;29.60;42.10;;;;;;5034360;28;20456;-69
2022/05/20 11:59:51;;;;;;;0.60;0.60;;;29.70;43.20;;;;;;5035900;28;20433;-70
2022/05/20 12:02:18;;;;;;;0.30;0.30;;;29.50;43.60;;;;;;5035321;28;20449;-70
2022/05/20 12:04:47;;;;;;;0.83;0.83;;;29.50;43.00;;;;;;5035249;28;20749;-69
2022/05/20 12:07:16;;;;;;;0.40;0.40;;;29.50;42.40;;;;;;5034761;28;20773;-71
2022/05/20 12:09:47;;;;;;;0.77;0.73;;;29.60;42.70;;;;;;5034118;28;21052;-70
2022/05/20 12:12:17;;;;;;;0.50;0.50;;;29.40;41.00;;;;;;5035222;28;20808;-70
2022/05/20 12:15:08;;;;;;;0.60;0.60;;;29.30;42.20;;;;;;5035367;28;20409;-71
2022/05/20 12:17:52;;;;;;;0.30;0.30;;;29.00;42.40;;;;;;5035224;28;20504;-70
2022/05/20 12:25:48;;;;;;;0.77;0.77;;;29.00;45.30;;;;;;5035181;28;20460;-70
2022/05/20 12:28:22;;;;;;;0.30;0.30;;;28.80;45.50;;;;;;5033765;28;20422;-70
2022/05/20 12:31:11;;;;;;;0.30;0.30;;;28.70;46.60;;;;;;5034832;28;20170;-70
2022/05/20 12:34:00;;;;;;;0.30;0.30;;;28.70;46.80;;;;;;5034768;28;20437;-69
2022/05/20 12:36:28;;;;;;;0.30;0.30;;;28.80;48.60;;;;;;5034898;28;20449;-71
2022/05/20 12:39:06;;;;;;;0.50;0.50;;;28.70;47.40;;;;;;5034728;28;20417;-71
2022/05/20 12:41:39;;;;;;;0.43;0.43;;;28.70;47.60;;;;;;5034721;28;20394;-71
2022/05/20 12:44:16;;;;;;;0.83;0.83;;;28.60;47.60;;;;;;5034645;28;20508;-72
2022/05/20 12:47:00;;;;;;;0.40;0.40;;;28.50;48.50;;;;;;5034660;28;20406;-70
2022/05/20 12:49:51;;;;;;;0.47;0.47;;;28.40;48.50;;;;;;5034787;28;20426;-70
2022/05/20 12:52:21;;;;;;;0.40;0.40;;;28.40;49.50;;;;;;5033820;28;20414;-70
2022/05/20 12:54:50;;;;;;;0.60;0.60;;;28.30;47.50;;;;;;5034417;28;20772;-70
2022/05/20 12:57:32;;;;;;;0.77;0.77;;;28.30;48.40;;;;;;5034287;28;20449;-71
2022/05/20 13:00:07;;;;;;;0.57;0.57;;;28.60;49.70;;;;;;5033015;28;20965;-71
2022/05/20 13:02:44;;;;;;;0.40;0.40;;;28.70;48.70;;;;;;5034049;28;20424;-71
2022/05/20 13:05:21;;;;;;;0.30;0.30;;;28.80;48.50;;;;;;5034367;28;20397;-71
2022/05/20 13:07:49;;;;;;;0.30;0.30;;;28.80;47.90;;;;;;5033098;28;20506;-70
2022/05/20 13:10:37;;;;;;;0.40;0.40;;;28.90;46.30;;;;;;5034001;28;20509;-71
2022/05/20 13:13:07;;;;;;;1.23;1.23;;;28.80;46.90;;;;;;5034226;28;20872;-70
2022/05/20 13:15:59;;;;;;;0.30;0.30;;;28.80;46.00;;;;;;5034375;28;20429;-72
2022/05/20 13:18:29;;;;;;;0.40;0.40;;;28.90;46.00;;;;;;5033549;28;20444;-70
2022/05/20 13:21:38;;;;;;;0.30;0.30;;;28.90;45.30;;;;;;5033824;28;20803;-70
2022/05/20 13:24:14;;;;;;;0.30;0.30;;;28.90;43.30;;;;;;5012023;28;20838;-71
2022/05/20 13:26:41;;;;;;;0.30;0.30;;;28.90;44.10;;;;;;5031886;28;20420;-71
2022/05/20 13:29:18;;;;;;;0.57;0.53;;;28.90;43.10;;;;;;5033914;28;20910;-70
2022/05/20 13:31:45;;;;;;;0.30;0.30;;;29.00;41.90;;;;;;5033792;28;20416;-71
2022/05/20 13:34:12;;;;;;;0.30;0.30;;;29.00;42.50;;;;;;5033678;28;20405;-69
2022/05/20 13:36:43;;;;;;;0.50;0.50;;;29.00;39.60;;;;;;5033733;28;20786;-70
2022/05/20 13:39:15;;;;;;;0.50;0.50;;;29.00;39.80;;;;;;5033695;28;20421;-71
2022/05/20 13:41:40;;;;;;;0.30;0.30;;;29.00;39.90;;;;;;5033850;28;20898;-70
2022/05/20 13:44:07;;;;;;;0.40;0.40;;;29.10;40.50;;;;;;5033448;28;20452;-71
2022/05/20 13:49:23;;;;;;;1.13;1.10;;;28.90;37.90;;;;;;5033546;28;21001;-72